Time;durP1;ratioP1;P1;durP2;ratioP2;P2;SDS_P1;SDS_P2;PMS_P1;PMS_P2;Temp;Humidity;BMP_temperature;BMP_pressure;BME280_temperature;BME280_humidity;BME280_pressure;Samples;Min_cycle;Max_cycle;Signal;HPM_P1;HPM_P2
2022/04/11 00:02:14;;;;;;;13.07;8.20;;;7.70;99.90;;;;;;4377143;32;20090;-63
2022/04/11 00:04:41;;;;;;;12.45;7.53;;;;;;;;;;4391376;32;20078;-63
2022/04/11 00:07:07;;;;;;;13.80;7.65;;;7.20;99.90;;;;;;4364876;32;20082;-63
2022/04/11 00:09:33;;;;;;;13.18;7.62;;;7.30;99.90;;;;;;4353329;32;20082;-62
2022/04/11 00:12:00;;;;;;;10.93;7.70;;;7.30;99.90;;;;;;4377362;32;20161;-63
2022/04/11 00:14:26;;;;;;;11.35;7.60;;;7.40;99.90;;;;;;4377532;32;20077;-64
2022/04/11 00:16:53;;;;;;;11.18;7.10;;;7.50;99.90;;;;;;4382104;32;20156;-63
2022/04/11 00:19:19;;;;;;;11.23;7.62;;;7.50;99.90;;;;;;4380945;32;20585;-62
2022/04/11 00:21:45;;;;;;;9.98;6.97;;;7.50;99.90;;;;;;4377917;32;20089;-63
2022/04/11 00:24:12;;;;;;;10.57;7.00;;;7.50;99.90;;;;;;4379632;32;20184;-64
2022/04/11 00:26:38;;;;;;;14.23;7.55;;;7.50;99.90;;;;;;4394366;32;20173;-63
2022/04/11 00:29:04;;;;;;;12.25;7.18;;;7.50;99.90;;;;;;4394694;32;20162;-64
2022/04/11 00:31:31;;;;;;;12.10;7.30;;;7.50;99.90;;;;;;4380270;32;20152;-63
2022/04/11 00:33:57;;;;;;;11.82;7.05;;;7.40;99.90;;;;;;4380103;32;20090;-64
2022/04/11 00:36:23;;;;;;;11.73;7.60;;;7.50;99.90;;;;;;4394179;32;20100;-63
2022/04/11 00:38:49;;;;;;;10.65;6.80;;;7.50;99.90;;;;;;4380319;32;20073;-63
2022/04/11 00:41:16;;;;;;;12.40;7.12;;;7.50;99.90;;;;;;4355129;32;20180;-63
2022/04/11 00:43:42;;;;;;;12.48;7.28;;;7.50;99.90;;;;;;4367517;32;20085;-62
2022/04/11 00:46:10;;;;;;;10.82;6.95;;;;;;;;;;4380458;32;20527;-64
2022/04/11 00:48:37;;;;;;;10.25;7.47;;;7.50;99.90;;;;;;4380060;32;20081;-63
2022/04/11 00:51:10;;;;;;;10.93;7.25;;;7.50;99.90;;;;;;4380101;32;20154;-63
2022/04/11 00:53:41;;;;;;;10.98;6.95;;;7.40;99.90;;;;;;4380057;32;20152;-63
2022/04/11 00:56:12;;;;;;;10.70;7.47;;;7.40;99.90;;;;;;4393839;32;20195;-63
2022/04/11 00:58:40;;;;;;;10.40;7.18;;;7.40;99.90;;;;;;4379789;32;20549;-63
2022/04/11 01:01:07;;;;;;;13.77;7.47;;;7.40;99.90;;;;;;4364400;32;20086;-64
2022/04/11 01:03:34;;;;;;;11.93;7.57;;;7.50;99.90;;;;;;4378986;32;20137;-63
2022/04/11 01:08:36;;;;;;;11.10;7.22;;;7.50;99.90;;;;;;3857530;37;20464;-63
2022/04/11 01:11:04;;;;;;;11.23;6.85;;;7.40;99.90;;;;;;4418658;32;20111;-64
2022/04/11 01:13:30;;;;;;;12.05;6.97;;;7.50;99.90;;;;;;4393214;32;20168;-63
2022/04/11 01:16:03;;;;;;;13.98;7.18;;;7.50;99.90;;;;;;4418354;32;20089;-63
2022/04/11 01:18:36;;;;;;;11.60;6.95;;;7.40;99.90;;;;;;4405456;32;20092;-64
2022/04/11 01:21:06;;;;;;;10.00;7.25;;;7.50;99.90;;;;;;4405885;32;20084;-63
2022/04/11 01:23:32;;;;;;;9.63;6.80;;;7.50;99.90;;;;;;4418370;32;20081;-63
2022/04/11 01:25:58;;;;;;;11.45;6.55;;;7.50;99.90;;;;;;4418368;32;20623;-63
2022/04/11 01:28:25;;;;;;;11.38;7.00;;;7.30;99.90;;;;;;4419344;32;20087;-63
2022/04/11 01:30:53;;;;;;;10.25;6.82;;;7.40;99.90;;;;;;4419798;32;20069;-63
2022/04/11 01:33:24;;;;;;;15.60;8.13;;;7.40;99.90;;;;;;4418019;32;20523;-63
2022/04/11 01:35:51;;;;;;;12.18;7.68;;;7.20;99.90;;;;;;4419255;32;20148;-62
2022/04/11 01:38:17;;;;;;;12.50;8.20;;;7.10;99.90;;;;;;4418487;32;20104;-63
2022/04/11 01:41:02;;;;;;;10.80;7.12;;;7.00;99.90;;;;;;4418238;32;20500;-63
2022/04/11 01:43:28;;;;;;;12.48;8.13;;;7.00;99.90;;;;;;4417811;32;20195;-63
2022/04/11 01:45:54;;;;;;;14.18;7.45;;;6.90;99.90;;;;;;4419361;32;20526;-63
2022/04/11 01:48:21;;;;;;;11.52;7.68;;;7.10;99.90;;;;;;4417913;32;20079;-63
2022/04/11 01:50:47;;;;;;;12.13;7.60;;;7.00;99.90;;;;;;4419434;32;20077;-63
2022/04/11 01:53:16;;;;;;;11.68;7.75;;;6.90;99.90;;;;;;4417615;32;20591;-63
2022/04/11 01:55:43;;;;;;;17.17;9.18;;;6.80;99.90;;;;;;4418440;32;20234;-63
2022/04/11 01:58:11;;;;;;;13.77;8.52;;;6.60;99.90;;;;;;4418959;32;20065;-64
2022/04/11 02:00:39;;;;;;;14.30;9.10;;;;;;;;;;4417816;32;20088;-63
2022/04/11 02:03:07;;;;;;;13.57;8.68;;;6.40;99.90;;;;;;4411861;32;20142;-63
2022/04/11 02:05:34;;;;;;;13.48;8.52;;;5.80;99.90;;;;;;4414981;32;20085;-64
2022/04/11 02:08:01;;;;;;;14.55;8.52;;;5.60;99.90;;;;;;4403248;32;20145;-63
2022/04/11 02:10:28;;;;;;;16.30;8.75;;;5.30;99.90;;;;;;4402366;32;20153;-63
2022/04/11 02:12:56;;;;;;;15.60;8.30;;;4.90;99.90;;;;;;4402083;32;20157;-63
2022/04/11 02:15:22;;;;;;;12.27;8.45;;;4.80;99.90;;;;;;4403283;32;20428;-63
2022/04/11 02:17:50;;;;;;;11.98;7.95;;;5.00;99.90;;;;;;4401777;32;20081;-64
2022/04/11 02:20:17;;;;;;;11.88;7.57;;;5.20;99.90;;;;;;4379272;32;20187;-63
2022/04/11 02:22:53;;;;;;;12.18;7.82;;;4.70;99.90;;;;;;4393394;32;20074;-63
2022/04/11 02:25:22;;;;;;;;;;;4.80;99.90;;;;;;4392368;32;20084;-63
2022/04/11 02:27:49;;;;;;;10.88;7.62;;;5.10;99.90;;;;;;4366938;32;19988;-63
2022/04/11 02:30:16;;;;;;;9.82;7.22;;;4.60;99.90;;;;;;4393719;32;20081;-62
2022/04/11 02:32:44;;;;;;;8.93;6.95;;;4.70;99.90;;;;;;4379366;32;20169;-63
2022/04/11 02:35:11;;;;;;;10.02;7.68;;;4.70;99.90;;;;;;4379492;32;20089;-64
2022/04/11 02:37:38;;;;;;;12.00;7.50;;;4.50;99.90;;;;;;4391788;32;20079;-63
2022/04/11 02:40:07;;;;;;;20.42;12.43;;;4.40;99.90;;;;;;4392239;32;20121;-63
2022/04/11 02:42:34;;;;;;;22.73;14.18;;;4.60;99.90;;;;;;4391987;32;20108;-63
2022/04/11 02:45:02;;;;;;;19.12;11.52;;;4.70;99.90;;;;;;4391502;32;20549;-63
2022/04/11 02:47:28;;;;;;;16.23;9.77;;;4.70;99.90;;;;;;4392209;32;20078;-63
2022/04/11 02:49:54;;;;;;;18.65;11.23;;;4.80;99.90;;;;;;4391438;32;20169;-63
2022/04/11 02:52:21;;;;;;;18.48;11.77;;;4.80;99.90;;;;;;4393091;32;20096;-63
2022/04/11 02:54:47;;;;;;;17.45;10.30;;;4.80;99.90;;;;;;4393094;32;20077;-63
2022/04/11 02:57:13;;;;;;;15.98;9.45;;;4.90;99.90;;;;;;4393251;32;20104;-63
2022/04/11 02:59:40;;;;;;;14.38;8.65;;;4.90;99.90;;;;;;4392172;32;20156;-63
2022/04/11 03:02:06;;;;;;;14.45;8.40;;;4.90;99.90;;;;;;4392961;32;20077;-63
2022/04/11 03:04:32;;;;;;;11.18;7.87;;;5.00;99.90;;;;;;4391292;32;20148;-62
2022/04/11 03:06:59;;;;;;;14.13;7.28;;;5.10;99.90;;;;;;4378452;32;20110;-63
2022/04/11 03:09:25;;;;;;;11.85;7.68;;;5.10;99.90;;;;;;4393467;32;20072;-64
2022/04/11 03:11:51;;;;;;;11.20;7.20;;;5.00;99.90;;;;;;4404560;32;20074;-64
2022/04/11 03:14:18;;;;;;;11.90;7.47;;;4.90;99.90;;;;;;4391737;32;20145;-63
2022/04/11 03:16:44;;;;;;;12.05;7.40;;;5.10;99.90;;;;;;4394442;32;20507;-63
2022/04/11 03:19:10;;;;;;;13.20;7.53;;;5.10;99.90;;;;;;4386344;32;20156;-62
2022/04/11 03:21:37;;;;;;;11.15;7.28;;;5.20;99.90;;;;;;4398098;32;20192;-64
2022/04/11 03:24:04;;;;;;;10.15;7.00;;;5.50;99.90;;;;;;4391665;32;20097;-63
2022/04/11 03:26:30;;;;;;;15.52;8.00;;;;;;;;;;4391472;32;20158;-64
2022/04/11 03:28:56;;;;;;;11.77;8.10;;;5.70;99.90;;;;;;4378451;32;20503;-63
2022/04/11 03:31:23;;;;;;;11.23;7.60;;;5.80;99.90;;;;;;4390522;32;20070;-64
2022/04/11 03:33:49;;;;;;;11.20;7.18;;;6.00;99.90;;;;;;4392360;32;20157;-63
2022/04/11 03:36:15;;;;;;;14.32;7.28;;;5.90;99.90;;;;;;4390973;32;20576;-64
2022/04/11 03:38:42;;;;;;;17.50;8.00;;;6.00;99.90;;;;;;4391864;32;20173;-64
2022/04/11 03:41:08;;;;;;;14.65;7.30;;;6.00;99.90;;;;;;4391320;32;20073;-63
2022/04/11 03:43:35;;;;;;;13.62;7.57;;;6.20;99.90;;;;;;4378352;32;20162;-64
2022/04/11 03:46:01;;;;;;;15.10;7.97;;;6.30;99.90;;;;;;4390935;32;20524;-64
2022/04/11 03:48:28;;;;;;;13.25;7.75;;;6.40;99.90;;;;;;4391046;32;20572;-64
2022/04/11 03:50:54;;;;;;;16.92;7.85;;;6.70;99.90;;;;;;4392650;32;20109;-64
2022/04/11 03:53:20;;;;;;;24.52;8.35;;;6.70;99.90;;;;;;4390721;32;20065;-63
2022/04/11 03:55:47;;;;;;;21.33;7.70;;;6.70;99.90;;;;;;4392488;32;20069;-64
2022/04/11 03:58:13;;;;;;;17.27;7.35;;;6.60;99.90;;;;;;4378679;32;20074;-64
2022/04/11 04:00:39;;;;;;;14.90;8.80;;;6.60;99.90;;;;;;4391839;32;20194;-64
2022/04/11 04:03:11;;;;;;;21.00;8.63;;;6.70;99.90;;;;;;4391819;32;20081;-62
2022/04/11 04:05:46;;;;;;;19.83;8.02;;;6.70;99.90;;;;;;4390685;32;20551;-63
2022/04/11 04:08:14;;;;;;;20.37;8.32;;;6.80;99.90;;;;;;4390377;32;20089;-63
2022/04/11 04:10:41;;;;;;;15.45;9.18;;;6.80;99.90;;;;;;4390722;32;20100;-63
2022/04/11 04:13:07;;;;;;;19.30;8.15;;;6.90;99.90;;;;;;4390498;32;20160;-63
2022/04/11 04:15:34;;;;;;;20.75;7.43;;;7.00;99.90;;;;;;4391765;32;20145;-64
2022/04/11 04:18:00;;;;;;;21.17;8.27;;;7.00;99.90;;;;;;4391511;32;20097;-63
2022/04/11 04:20:27;;;;;;;16.80;8.02;;;;;;;;;;4390395;32;20083;-62
2022/04/11 04:22:57;;;;;;;21.92;9.13;;;7.20;99.90;;;;;;4377812;32;20073;-63
2022/04/11 04:25:24;;;;;;;17.42;8.82;;;7.30;99.90;;;;;;4402872;32;20475;-63
2022/04/11 04:27:50;;;;;;;23.08;10.80;;;7.20;99.90;;;;;;4390514;32;20456;-63
2022/04/11 04:30:16;;;;;;;24.10;9.95;;;7.30;99.90;;;;;;4377702;32;20085;-62
2022/04/11 04:32:43;;;;;;;22.85;10.55;;;7.30;99.90;;;;;;4391741;32;20077;-63
2022/04/11 04:35:10;;;;;;;24.80;10.35;;;7.40;99.90;;;;;;4377997;32;20070;-63
2022/04/11 04:37:36;;;;;;;21.87;10.13;;;7.50;99.90;;;;;;4389768;32;20472;-63
2022/04/11 04:40:04;;;;;;;18.15;9.20;;;7.80;99.90;;;;;;4402330;32;20178;-64
2022/04/11 04:42:30;;;;;;;37.45;10.80;;;7.80;99.90;;;;;;4389762;32;20100;-64
2022/04/11 04:44:56;;;;;;;21.70;9.73;;;7.90;99.90;;;;;;4389913;32;20101;-64
2022/04/11 04:47:25;;;;;;;23.70;9.93;;;7.90;99.90;;;;;;4402801;32;20080;-63
2022/04/11 04:49:52;;;;;;;21.58;10.30;;;8.30;99.90;;;;;;4390028;32;20452;-63
2022/04/11 04:52:18;;;;;;;24.35;10.02;;;8.50;99.90;;;;;;4389804;32;20084;-63
2022/04/11 04:54:45;;;;;;;18.95;10.73;;;;;;;;;;4390414;32;20089;-63
2022/04/11 04:57:11;;;;;;;26.20;10.85;;;10.30;99.90;;;;;;4389733;32;20114;-63
2022/04/11 04:59:38;;;;;;;20.80;10.30;;;11.50;99.90;;;;;;4390024;32;20591;-63
2022/04/11 05:02:04;;;;;;;18.30;9.98;;;12.00;99.90;;;;;;4390190;32;20093;-63
2022/04/11 05:04:30;;;;;;;27.95;11.95;;;12.00;99.90;;;;;;4391367;32;20074;-64
2022/04/11 05:06:58;;;;;;;26.42;12.15;;;11.80;99.90;;;;;;4391031;32;20149;-63
2022/04/11 05:09:24;;;;;;;31.87;12.20;;;12.30;99.90;;;;;;4390206;32;20595;-63
2022/04/11 05:11:50;;;;;;;22.02;12.35;;;12.20;99.90;;;;;;4391270;32;20073;-63
2022/04/11 05:14:17;;;;;;;26.80;13.02;;;11.80;99.90;;;;;;4389736;32;20158;-62
2022/04/11 05:16:43;;;;;;;21.10;12.30;;;11.40;99.90;;;;;;4391231;32;20095;-63
2022/04/11 05:19:10;;;;;;;26.05;13.90;;;11.40;99.90;;;;;;4402143;32;20536;-63
2022/04/11 05:21:36;;;;;;;26.77;12.00;;;;;;;;;;4389784;32;20129;-63
2022/04/11 05:24:03;;;;;;;28.80;14.50;;;11.40;99.90;;;;;;4391041;32;20126;-64
2022/04/11 05:26:29;;;;;;;31.52;15.18;;;10.80;99.90;;;;;;4376937;32;20090;-63
2022/04/11 05:28:55;;;;;;;24.35;15.10;;;10.80;99.90;;;;;;4391310;32;20073;-63
2022/04/11 05:31:22;;;;;;;27.77;15.73;;;11.00;99.90;;;;;;4390155;32;20072;-63
2022/04/11 05:33:48;;;;;;;24.77;13.77;;;11.80;99.90;;;;;;4377485;32;20082;-64
2022/04/11 05:36:14;;;;;;;31.85;13.20;;;12.60;99.90;;;;;;4391113;32;20096;-63
2022/04/11 05:38:41;;;;;;;24.40;13.27;;;;;;;;;;4390846;32;20529;-63
2022/04/11 05:41:08;;;;;;;28.58;15.15;;;12.60;99.90;;;;;;4390791;32;20073;-63
2022/04/11 05:43:34;;;;;;;24.20;14.65;;;12.60;99.90;;;;;;4391065;32;20082;-63
2022/04/11 05:46:01;;;;;;;26.08;14.40;;;13.40;99.90;;;;;;4377805;32;20078;-62
2022/04/11 05:48:32;;;;;;;29.58;15.73;;;13.30;99.90;;;;;;4389382;32;20129;-64
2022/04/11 05:50:59;;;;;;;30.23;15.20;;;13.70;99.90;;;;;;4389574;32;20085;-63
2022/04/11 05:53:26;;;;;;;29.37;15.40;;;13.60;99.90;;;;;;4377365;32;20154;-62
2022/04/11 05:55:53;;;;;;;27.48;16.10;;;;;;;;;;4392597;32;20084;-64
2022/04/11 05:58:19;;;;;;;35.72;18.90;;;14.10;99.90;;;;;;4392530;32;20170;-63
2022/04/11 06:00:46;;;;;;;32.90;18.33;;;14.30;99.90;;;;;;4394003;32;20081;-63
2022/04/11 06:03:13;;;;;;;38.58;20.15;;;14.50;99.90;;;;;;4392027;32;20452;-62
2022/04/11 06:05:40;;;;;;;38.55;20.10;;;14.40;99.90;;;;;;4392795;32;20093;-63
2022/04/11 06:08:07;;;;;;;34.20;18.42;;;;;;;;;;4391957;32;20082;-63
2022/04/11 06:10:33;;;;;;;44.72;20.98;;;15.10;99.90;;;;;;4379507;32;20532;-64
2022/04/11 06:13:00;;;;;;;43.75;19.87;;;15.00;99.90;;;;;;4392167;32;20080;-63
2022/04/11 06:15:26;;;;;;;35.38;16.33;;;15.20;99.90;;;;;;4393575;32;20169;-63
2022/04/11 06:17:52;;;;;;;35.80;18.33;;;15.00;99.90;;;;;;4393570;32;20093;-63
2022/04/11 06:20:18;;;;;;;32.95;17.00;;;13.60;99.90;;;;;;4393651;32;20073;-63
2022/04/11 06:22:46;;;;;;;25.77;15.50;;;;;;;;;;4393334;32;20165;-61
2022/04/11 06:25:13;;;;;;;38.05;21.90;;;;;;;;;;4401162;32;20070;-63
2022/04/11 06:27:39;;;;;;;46.70;21.73;;;12.50;99.90;;;;;;4395700;32;20570;-63
2022/04/11 06:30:06;;;;;;;38.67;21.50;;;12.60;99.90;;;;;;4393986;32;20086;-62
2022/04/11 06:32:33;;;;;;;38.78;22.77;;;;;;;;;;4393619;32;20171;-62
2022/04/11 06:35:00;;;;;;;38.97;20.85;;;;;;;;;;4391707;32;20145;-62
2022/04/11 06:37:27;;;;;;;34.15;18.73;;;12.40;99.90;;;;;;4366924;32;20110;-64
2022/04/11 06:39:55;;;;;;;26.87;15.68;;;12.40;99.90;;;;;;4391861;32;20085;-62
2022/04/11 06:42:21;;;;;;;36.45;20.80;;;12.80;99.90;;;;;;4391700;32;20512;-62
2022/04/11 06:44:48;;;;;;;36.78;20.37;;;12.70;99.90;;;;;;4393299;32;20092;-61
2022/04/11 06:47:14;;;;;;;43.20;23.80;;;13.00;99.90;;;;;;4391821;32;20484;-63
2022/04/11 06:49:41;;;;;;;34.70;19.60;;;12.80;99.90;;;;;;4393105;32;20081;-63
2022/04/11 06:52:08;;;;;;;38.10;21.67;;;;;;;;;;4391692;32;20089;-63
2022/04/11 06:54:34;;;;;;;36.47;19.48;;;13.00;99.90;;;;;;4391966;32;20170;-62
2022/04/11 06:57:01;;;;;;;32.85;18.23;;;13.50;99.90;;;;;;4393138;32;20094;-62
2022/04/11 06:59:27;;;;;;;34.90;19.65;;;13.80;99.90;;;;;;4378891;32;20081;-63
2022/04/11 07:01:53;;;;;;;34.42;20.85;;;13.40;99.90;;;;;;4378843;32;20165;-62
2022/04/11 07:04:21;;;;;;;30.90;19.52;;;13.20;99.90;;;;;;4392702;32;20101;-62
2022/04/11 07:06:48;;;;;;;32.88;16.48;;;;;;;;;;4365858;32;20080;-63
2022/04/11 07:09:15;;;;;;;34.38;18.17;;;;;;;;;;4392799;32;20184;-62
2022/04/11 07:11:42;;;;;;;30.30;17.48;;;;;;;;;;4391332;32;20519;-62
2022/04/11 07:14:09;;;;;;;28.48;15.85;;;;;;;;;;4378590;32;20067;-63
2022/04/11 07:16:36;;;;;;;27.42;15.60;;;;;;;;;;4391516;32;20078;-63
2022/04/11 07:19:02;;;;;;;19.98;11.00;;;;;;;;;;4378412;32;20150;-63
2022/04/11 07:21:29;;;;;;;33.17;18.20;;;13.80;99.90;;;;;;4392401;32;20084;-63
2022/04/11 07:23:55;;;;;;;25.90;13.07;;;14.00;99.90;;;;;;4392858;32;20085;-63
2022/04/11 07:26:21;;;;;;;28.58;17.02;;;13.90;99.90;;;;;;4391343;32;20084;-63
2022/04/11 07:28:47;;;;;;;25.52;14.07;;;13.60;99.90;;;;;;4392355;32;20069;-63
2022/04/11 07:31:15;;;;;;;25.48;14.00;;;;;;;;;;4390942;32;20139;-62
2022/04/11 07:33:41;;;;;;;28.77;16.35;;;13.80;99.90;;;;;;4392208;32;20062;-62
2022/04/11 07:36:08;;;;;;;19.60;10.32;;;13.60;99.90;;;;;;4392301;32;20504;-63
2022/04/11 07:38:34;;;;;;;31.80;16.33;;;13.90;99.90;;;;;;4392503;32;20464;-62
2022/04/11 07:41:01;;;;;;;25.05;15.38;;;14.40;99.90;;;;;;4378290;32;20160;-63
2022/04/11 07:43:27;;;;;;;20.90;10.95;;;;;;;;;;4390931;32;20085;-63
2022/04/11 07:45:54;;;;;;;26.33;12.15;;;;;;;;;;4378533;32;20164;-63
2022/04/11 07:48:20;;;;;;;29.98;14.40;;;15.10;99.90;;;;;;4390314;32;20507;-63
2022/04/11 07:50:47;;;;;;;25.67;14.43;;;14.30;99.90;;;;;;4390524;32;20173;-63
2022/04/11 07:53:13;;;;;;;26.05;15.20;;;14.10;99.90;;;;;;4378422;32;20094;-63
2022/04/11 07:55:40;;;;;;;19.40;12.80;;;14.20;99.90;;;;;;4390784;32;20161;-62
2022/04/11 07:58:06;;;;;;;23.98;14.55;;;;;;;;;;4381530;32;20531;-63
2022/04/11 08:00:33;;;;;;;23.15;14.38;;;14.10;99.90;;;;;;4385744;32;20073;-64
2022/04/11 08:03:00;;;;;;;21.48;11.63;;;;;;;;;;4372434;32;20093;-63
2022/04/11 08:05:27;;;;;;;25.05;11.07;;;;;;;;;;4379616;32;20230;-62
2022/04/11 08:07:53;;;;;;;21.30;13.20;;;15.30;99.90;;;;;;4394123;32;20126;-63
2022/04/11 08:10:21;;;;;;;25.37;14.43;;;14.60;99.90;;;;;;4369933;32;20139;-63
2022/04/11 08:12:56;;;;;;;23.98;14.30;;;;;;;;;;4381617;32;20093;-63
2022/04/11 08:15:23;;;;;;;20.05;11.45;;;14.50;99.90;;;;;;4390443;32;20110;-63
2022/04/11 08:17:49;;;;;;;19.50;11.75;;;15.10;99.90;;;;;;4389956;32;20519;-63
2022/04/11 08:20:16;;;;;;;19.15;11.70;;;15.20;99.90;;;;;;4390193;32;20157;-63
2022/04/11 08:22:42;;;;;;;24.05;13.55;;;15.30;99.90;;;;;;4383662;32;20053;-73
2022/04/11 08:25:09;;;;;;;29.37;13.82;;;14.90;99.90;;;;;;4388816;32;20611;-70
2022/04/11 08:27:36;;;;;;;27.02;14.68;;;14.80;99.90;;;;;;4379582;32;20093;-67
2022/04/11 08:30:04;;;;;;;24.17;13.25;;;14.80;99.90;;;;;;4378401;32;20088;-64
2022/04/11 08:32:48;;;;;;;27.23;15.48;;;14.80;99.90;;;;;;4365206;32;20085;-66
2022/04/11 08:35:16;;;;;;;23.95;15.02;;;14.80;99.90;;;;;;4379637;32;20110;-65
2022/04/11 08:37:42;;;;;;;26.45;14.85;;;14.80;99.90;;;;;;4359239;32;20096;-66
2022/04/11 08:40:13;;;;;;;23.58;15.18;;;14.90;99.90;;;;;;4370476;32;20078;-66
2022/04/11 08:42:43;;;;;;;23.65;13.45;;;14.80;99.90;;;;;;4364102;32;20069;-66
2022/04/11 08:45:13;;;;;;;27.02;15.18;;;15.00;99.90;;;;;;4376367;32;20118;-65
2022/04/11 08:47:40;;;;;;;24.12;14.25;;;;;;;;;;4389031;32;20089;-66
2022/04/11 08:50:07;;;;;;;25.10;15.13;;;15.30;99.90;;;;;;4363182;32;20084;-66
2022/04/11 08:52:35;;;;;;;26.48;14.45;;;15.50;99.90;;;;;;4377449;32;20540;-66
2022/04/11 08:55:03;;;;;;;24.50;14.02;;;15.50;99.90;;;;;;4372066;32;20062;-65
2022/04/11 08:57:29;;;;;;;33.72;15.15;;;15.80;99.90;;;;;;4390027;32;20494;-65
2022/04/11 09:00:06;;;;;;;26.98;14.35;;;15.80;99.90;;;;;;4373793;32;20161;-69
2022/04/11 09:02:33;;;;;;;;;;;16.00;99.90;;;;;;4360367;32;20101;-68
2022/04/11 09:05:01;;;;;;;28.92;14.55;;;15.60;99.90;;;;;;4369347;32;20001;-69
2022/04/11 09:07:27;;;;;;;26.48;15.43;;;16.00;99.90;;;;;;4374132;32;20117;-70
2022/04/11 09:10:01;;;;;;;24.10;14.68;;;15.90;99.90;;;;;;4363310;32;21287;-69
2022/04/11 09:12:28;;;;;;;28.33;14.68;;;;;;;;;;4376389;32;20124;-65
2022/04/11 09:14:56;;;;;;;20.15;12.48;;;;;;;;;;4349642;32;20467;-64
2022/04/11 09:17:26;;;;;;;23.17;12.90;;;;;;;;;;4391957;32;20164;-69
2022/04/11 09:20:12;;;;;;;24.75;12.37;;;;;;;;;;4374411;32;20104;-68
2022/04/11 09:22:39;;;;;;;23.23;12.45;;;;;;;;;;4374668;32;20078;-68
2022/04/11 09:25:14;;;;;;;23.73;12.90;;;;;;;;;;4375749;32;20081;-68
2022/04/11 09:27:41;;;;;;;26.62;12.13;;;;;;;;;;4371496;32;20111;-67
2022/04/11 09:30:34;;;;;;;21.50;11.90;;;;;;;;;;4382413;32;20097;-65
2022/04/11 09:33:06;;;;;;;18.40;11.52;;;;;;;;;;4390647;32;20487;-66
2022/04/11 09:35:46;;;;;;;18.42;10.75;;;;;;;;;;4380434;32;20086;-68
2022/04/11 09:38:23;;;;;;;21.05;10.63;;;;;;;;;;4366184;32;20078;-67
2022/04/11 09:40:52;;;;;;;18.73;11.18;;;16.10;99.90;;;;;;4391126;32;20070;-68
2022/04/11 09:43:31;;;;;;;20.90;11.73;;;16.50;99.90;;;;;;4391453;32;20516;-65
2022/04/11 09:46:00;;;;;;;24.98;12.82;;;16.50;99.90;;;;;;4383520;32;20105;-64
2022/04/11 09:48:37;;;;;;;30.70;13.65;;;16.70;99.90;;;;;;4359003;32;20074;-65
2022/04/11 09:51:10;;;;;;;25.08;13.90;;;16.40;99.90;;;;;;4376090;32;20186;-66
2022/04/11 09:53:38;;;;;;;29.00;14.55;;;16.20;99.90;;;;;;4385310;32;20245;-64
2022/04/11 09:56:08;;;;;;;24.35;13.73;;;16.50;99.90;;;;;;4389423;32;20533;-63
2022/04/11 09:58:40;;;;;;;26.45;13.73;;;16.40;99.90;;;;;;4365133;32;20094;-64
2022/04/11 10:01:08;;;;;;;27.33;14.52;;;16.60;99.90;;;;;;4364881;32;20194;-63
2022/04/11 10:03:36;;;;;;;21.60;13.25;;;16.70;99.90;;;;;;4379503;32;20074;-63
2022/04/11 10:06:05;;;;;;;26.90;15.48;;;17.20;99.90;;;;;;4374619;32;20093;-66
2022/04/11 10:08:33;;;;;;;23.30;13.38;;;17.20;99.90;;;;;;4366789;32;20070;-65
2022/04/11 10:11:00;;;;;;;25.35;13.60;;;17.00;99.90;;;;;;4378288;32;20135;-62
2022/04/11 10:13:26;;;;;;;26.90;14.10;;;17.00;99.90;;;;;;4376627;32;20142;-64
2022/04/11 10:15:53;;;;;;;30.70;15.38;;;17.10;99.90;;;;;;4365473;32;20573;-64
2022/04/11 10:18:25;;;;;;;27.60;14.77;;;17.20;99.90;;;;;;4375690;32;20089;-64
2022/04/11 10:20:58;;;;;;;25.08;14.90;;;16.90;99.90;;;;;;4374498;32;20143;-63
2022/04/11 10:23:45;;;;;;;25.60;16.12;;;16.60;99.90;;;;;;4379370;32;20587;-65
2022/04/11 10:26:18;;;;;;;32.70;15.93;;;16.40;99.90;;;;;;4386237;32;20065;-64
2022/04/11 10:28:51;;;;;;;31.55;15.60;;;16.40;99.90;;;;;;4384757;32;20074;-64
2022/04/11 10:31:18;;;;;;;34.83;17.17;;;16.90;99.90;;;;;;4374125;32;20114;-65
2022/04/11 10:33:49;;;;;;;29.85;15.55;;;16.80;99.90;;;;;;4379131;32;20569;-63
2022/04/11 10:36:55;;;;;;;28.15;15.48;;;16.80;99.90;;;;;;4363463;32;20097;-63
2022/04/11 10:39:23;;;;;;;23.83;16.17;;;16.60;99.90;;;;;;4367256;32;20152;-63
2022/04/11 10:43:07;;;;;;;32.55;16.77;;;16.50;99.90;;;;;;3788949;37;20095;-64
2022/04/11 10:45:40;;;;;;;34.22;15.75;;;16.70;99.90;;;;;;4373766;32;20154;-64
2022/04/11 10:48:13;;;;;;;26.25;15.80;;;17.00;99.90;;;;;;4347886;32;20202;-62
2022/04/11 10:50:42;;;;;;;22.80;12.88;;;17.00;99.90;;;;;;4367302;32;20102;-63
2022/04/11 10:53:23;;;;;;;24.48;14.48;;;17.80;99.90;;;;;;4353253;32;20642;-64
2022/04/11 10:56:00;;;;;;;22.02;13.68;;;18.70;99.90;;;;;;4354703;32;20112;-64
2022/04/11 10:58:50;;;;;;;25.00;13.18;;;18.90;99.90;;;;;;4341822;32;20117;-64
2022/04/11 11:01:45;;;;;;;25.20;13.32;;;19.00;99.90;;;;;;4329841;32;20199;-64
2022/04/11 11:04:19;;;;;;;27.83;12.98;;;17.50;99.90;;;;;;4376343;32;20116;-65
2022/04/11 11:06:46;;;;;;;23.17;13.65;;;17.40;99.90;;;;;;4359015;32;20059;-63
2022/04/11 11:09:19;;;;;;;22.37;14.07;;;17.80;99.90;;;;;;4374298;32;20542;-65
2022/04/11 11:11:47;;;;;;;22.45;12.85;;;17.90;99.90;;;;;;4372375;32;20081;-64
2022/04/11 11:14:40;;;;;;;28.17;14.20;;;18.20;99.90;;;;;;4373901;32;20108;-63
2022/04/11 11:17:07;;;;;;;23.42;12.98;;;18.70;99.90;;;;;;4372745;32;20459;-65
2022/04/11 11:20:06;;;;;;;26.10;14.18;;;18.30;99.90;;;;;;4366207;32;20165;-66
2022/04/11 11:23:23;;;;;;;27.37;14.55;;;18.50;99.90;;;;;;4374415;32;20067;-65
2022/04/11 11:25:50;;;;;;;25.25;12.63;;;17.80;99.90;;;;;;4323859;32;20100;-64
2022/04/11 11:28:17;;;;;;;20.85;12.35;;;17.90;99.90;;;;;;4367906;32;20501;-64
2022/04/11 11:30:43;;;;;;;23.98;13.23;;;17.80;99.90;;;;;;4349233;32;20094;-65
2022/04/11 11:33:18;;;;;;;20.00;10.75;;;17.30;99.90;;;;;;4346506;32;20074;-63
2022/04/11 11:35:46;;;;;;;20.88;12.40;;;;;;;;;;4359474;32;20472;-64
2022/04/11 11:38:13;;;;;;;21.10;11.82;;;17.30;99.90;;;;;;4362680;32;20218;-62
2022/04/11 11:41:03;;;;;;;22.35;11.93;;;16.90;99.90;;;;;;4358198;32;20089;-63
2022/04/11 11:43:31;;;;;;;21.33;13.68;;;16.90;99.90;;;;;;4349988;32;20489;-65
2022/04/11 11:46:00;;;;;;;24.83;12.40;;;16.80;99.90;;;;;;4349117;32;20136;-64
2022/04/11 11:48:33;;;;;;;22.20;12.40;;;16.80;99.90;;;;;;4329224;32;20125;-65
2022/04/11 11:51:01;;;;;;;24.80;12.13;;;16.80;99.90;;;;;;4343826;32;20132;-65
2022/04/11 11:53:51;;;;;;;23.00;12.18;;;17.20;99.90;;;;;;4338825;32;20716;-64
2022/04/11 11:56:17;;;;;;;19.33;11.05;;;17.40;99.90;;;;;;4337390;32;20132;-64
2022/04/11 11:58:44;;;;;;;22.20;11.05;;;17.40;99.90;;;;;;4355160;32;20085;-65
2022/04/11 12:01:29;;;;;;;21.52;11.48;;;17.30;99.90;;;;;;4412855;27;20126;-66
